createdAt,value
2019-02-04T00:01:39.708Z,2.6
2019-02-04T00:06:45.306Z,2
2019-02-04T00:11:50.334Z,2.8
2019-02-04T00:16:56.238Z,2.7
2019-02-04T00:22:01.519Z,1.9
2019-02-04T00:27:07.454Z,1.8
2019-02-04T00:32:12.559Z,2.3
2019-02-04T00:37:16.865Z,3.2
2019-02-04T00:42:21.792Z,3.2
2019-02-04T00:47:26.925Z,1.9
2019-02-04T00:52:32.474Z,1.6
2019-02-04T00:57:38.611Z,2.2
2019-02-04T01:02:43.882Z,2.3
2019-02-04T01:07:49.157Z,2.1
2019-02-04T01:12:56.603Z,1.8
2019-02-04T01:18:01.947Z,1.5
2019-02-04T01:23:05.688Z,1.3
2019-02-04T01:28:11.026Z,1.3
2019-02-04T01:33:16.153Z,1.9
2019-02-04T01:38:21.384Z,1.4
2019-02-04T01:43:26.347Z,1.5
2019-02-04T01:48:30.565Z,1.6
2019-02-04T01:53:36.600Z,1.7
2019-02-04T01:58:43.449Z,1.5
2019-02-04T02:03:48.697Z,1.5
2019-02-04T02:08:54.773Z,1.7
2019-02-04T02:14:00.565Z,1.7
2019-02-04T02:19:06.425Z,1.3
2019-02-04T02:24:11.764Z,1.4
2019-02-04T02:29:17.694Z,1.9
2019-02-04T02:34:23.843Z,1.3
2019-02-04T02:39:28.868Z,1.2
2019-02-04T02:44:34.888Z,1.3
2019-02-04T02:49:39.088Z,1.2
2019-02-04T02:54:45.938Z,1.2
2019-02-04T02:59:51.190Z,1.3
2019-02-04T03:04:57.349Z,1.1
2019-02-04T03:10:03.401Z,1.1
2019-02-04T03:15:07.565Z,1.1
2019-02-04T03:20:14.182Z,1.7
2019-02-04T03:25:19.308Z,1.4
2019-02-04T03:30:24.661Z,1.3
2019-02-04T03:35:30.433Z,2.2
2019-02-04T03:40:35.632Z,1
2019-02-04T03:45:41.246Z,1.6
2019-02-04T03:50:46.868Z,1.6
2019-02-04T03:55:52.084Z,2.1
2019-02-04T04:00:57.960Z,1.4
2019-02-04T04:06:03.225Z,1.1
2019-02-04T04:11:07.591Z,1.6
2019-02-04T04:16:13.085Z,1.8
2019-02-04T04:21:18.658Z,1.3
2019-02-04T04:26:24.385Z,1.1
2019-02-04T04:31:29.672Z,0.9
2019-02-04T04:36:35.616Z,1.9
2019-02-04T04:41:40.648Z,2.1
2019-02-04T04:46:46.581Z,1.3
2019-02-04T04:51:51.738Z,1.4
2019-02-04T04:56:57.026Z,1
2019-02-04T05:02:02.557Z,1.1
2019-02-04T05:07:08.168Z,1.1
2019-02-04T05:12:15.421Z,1
2019-02-04T05:17:20.444Z,1
2019-02-04T05:22:26.203Z,1.7
2019-02-04T05:27:31.936Z,2.2
2019-02-04T05:32:37.829Z,2.3
2019-02-04T05:37:43.140Z,0.9
2019-02-04T05:42:47.400Z,3
2019-02-04T05:47:52.701Z,10.7
2019-02-04T05:52:58.480Z,4.7
2019-02-04T05:58:04.465Z,3.8
2019-02-04T06:03:09.740Z,17.5
2019-02-04T06:08:16.911Z,8.1
2019-02-04T06:13:22.051Z,4.6
2019-02-04T06:18:27.728Z,5.2
2019-02-04T06:23:32.914Z,7.9
2019-02-04T06:28:37.633Z,4.7
2019-02-04T06:33:42.752Z,5.6
2019-02-04T06:38:48.685Z,8.1
2019-02-04T06:43:54.421Z,4.4
2019-02-04T06:48:59.460Z,3.6
2019-02-04T06:50:31.637Z,3.3
2019-02-04T06:55:36.828Z,5.5
2019-02-04T07:00:42.853Z,6.6
2019-02-04T07:05:48.498Z,6.5
2019-02-04T07:10:54.172Z,5.9
2019-02-04T07:15:59.832Z,5.8
2019-02-04T07:21:05.364Z,5
2019-02-04T07:26:11.266Z,8.5
2019-02-04T07:31:17.023Z,7.7
2019-02-04T07:36:22.188Z,8.6
2019-02-04T07:41:27.767Z,7.6
2019-02-04T07:46:33.416Z,6.9
2019-02-04T07:51:38.710Z,15.1
2019-02-04T07:56:44.509Z,14.8
2019-02-04T08:01:51.256Z,10.1
2019-02-04T08:06:56.395Z,10.2
2019-02-04T08:12:01.755Z,13.3
2019-02-04T08:17:06.274Z,16.6
2019-02-04T08:22:12.100Z,9.5
2019-02-04T08:27:18.125Z,10.2
2019-02-04T08:32:23.622Z,9.6
2019-02-04T08:37:29.412Z,8.4
2019-02-04T08:42:35.586Z,9.7
2019-02-04T08:47:41.177Z,10.6
2019-02-04T08:52:47.008Z,9.2
2019-02-04T08:57:52.592Z,4.8
2019-02-04T09:02:56.383Z,10.1
2019-02-04T09:08:02.120Z,8.3
2019-02-04T09:13:09.550Z,5
2019-02-04T09:18:15.660Z,5
2019-02-04T09:23:20.714Z,5.1
2019-02-04T09:28:26.305Z,5
2019-02-04T09:33:32.918Z,7.4
2019-02-04T09:38:38.702Z,6.6
2019-02-04T09:43:43.763Z,5.3
2019-02-04T09:48:50.218Z,6.7
2019-02-04T09:53:55.665Z,4.3
2019-02-04T09:59:00.811Z,4.6
2019-02-04T10:04:06.618Z,4.2
2019-02-04T10:09:12.156Z,3.9
2019-02-04T10:14:17.400Z,3.5
2019-02-04T10:19:23.018Z,2.9
2019-02-04T10:24:28.868Z,6.3
2019-02-04T10:29:35.191Z,3
2019-02-04T10:34:42.151Z,3.5
2019-02-04T10:39:46.290Z,5.7
2019-02-04T10:44:51.748Z,3.8
2019-02-04T10:49:56.969Z,9.5
2019-02-04T10:55:02.757Z,6
2019-02-04T11:00:08.624Z,5.6
2019-02-04T11:05:13.762Z,6.8
2019-02-04T11:10:19.934Z,7.1
2019-02-04T11:15:25.768Z,5.8
2019-02-04T11:20:32.934Z,4.9
2019-02-04T11:25:38.529Z,3.7
2019-02-04T11:30:44.219Z,4.7
2019-02-04T11:35:50.177Z,3.6
2019-02-04T11:40:56.553Z,4.4
2019-02-04T11:46:01.836Z,3.4
2019-02-04T11:51:09.947Z,3.6
2019-02-04T11:56:15.900Z,3.6
2019-02-04T12:01:20.933Z,4.5
2019-02-04T12:06:27.245Z,3.7
2019-02-04T12:11:32.813Z,5.4
2019-02-04T12:16:38.167Z,3.5
2019-02-04T12:21:44.136Z,5.1
2019-02-04T12:26:47.996Z,2.7
2019-02-04T12:31:53.337Z,5
2019-02-04T12:36:58.465Z,3.4
2019-02-04T12:42:05.266Z,3.1
2019-02-04T12:47:10.512Z,3
2019-02-04T12:52:15.800Z,4.2
2019-02-04T12:57:21.498Z,3.5
2019-02-04T13:02:27.359Z,2.9
2019-02-04T13:07:32.416Z,3.6
2019-02-04T13:12:38.315Z,2.7
2019-02-04T13:17:47.638Z,2.7
2019-02-04T13:22:52.864Z,3.1
2019-02-04T13:27:57.846Z,2.5
2019-02-04T13:33:03.580Z,2.5
2019-02-04T13:38:10.763Z,2.5
2019-02-04T13:43:16.821Z,2.9
2019-02-04T13:48:22.133Z,2.6
2019-02-04T13:53:27.932Z,2.2
2019-02-04T13:58:34.062Z,2.4
2019-02-04T14:03:39.089Z,3.1
2019-02-04T14:08:44.256Z,3.1
2019-02-04T14:13:49.728Z,3.1
2019-02-04T14:18:55.196Z,3.4
2019-02-04T14:24:01.493Z,5.9
2019-02-04T14:29:06.516Z,4.3
2019-02-04T14:34:11.861Z,4.5
2019-02-04T14:39:17.295Z,7.2
2019-02-04T14:44:22.367Z,4.5
2019-02-04T14:49:27.850Z,6.2
2019-02-04T14:54:37.785Z,4.1
2019-02-04T14:59:33.825Z,5.5
2019-02-04T15:04:39.420Z,5.4
2019-02-04T15:09:44.588Z,7.7
2019-02-04T15:14:50.272Z,3.5
2019-02-04T15:19:55.540Z,4.1
2019-02-04T15:25:00.951Z,4.8
2019-02-04T15:30:06.222Z,2.5
2019-02-04T15:35:11.749Z,4.3
2019-02-04T15:40:16.821Z,3.8
2019-02-04T15:45:22.321Z,6.1
2019-02-04T15:50:32.205Z,7.4
2019-02-04T15:55:39.947Z,7.1
2019-02-04T16:00:44.656Z,7.5
2019-02-04T16:05:50.596Z,6.9
2019-02-04T16:10:56.293Z,5.3
2019-02-04T16:16:02.456Z,5.9
2019-02-04T16:21:08.660Z,5.1
2019-02-04T16:26:15.213Z,6.5
2019-02-04T16:31:20.952Z,9.5
2019-02-04T16:36:26.611Z,11.4
2019-02-04T16:41:32.378Z,8.7
2019-02-04T16:46:38.664Z,20.4
2019-02-04T16:51:43.670Z,13.3
2019-02-04T16:56:49.152Z,12.5
2019-02-04T17:09:44.939Z,10.6
2019-02-04T17:14:50.744Z,9
2019-02-04T17:19:56.386Z,8.7
2019-02-04T17:25:02.305Z,8.4
2019-02-04T17:30:07.454Z,12
2019-02-04T17:35:14.960Z,9.4
2019-02-04T17:40:20.042Z,8.4
2019-02-04T17:45:25.267Z,8.7
2019-02-04T17:50:30.438Z,8.7
2019-02-04T17:55:37.661Z,8.7
2019-02-04T18:00:42.559Z,6.1
2019-02-04T18:05:47.834Z,9.3
2019-02-04T18:10:53.683Z,9.8
2019-02-04T18:15:59.075Z,10.5
2019-02-04T18:21:05.453Z,12.5
2019-02-04T18:26:11.187Z,7.4
2019-02-04T18:31:17.692Z,11.9
2019-02-04T18:36:23.386Z,15.3
2019-02-04T18:41:29.894Z,17.1
2019-02-04T18:46:35.136Z,15.2
2019-02-04T18:51:40.260Z,12.5
2019-02-04T18:56:46.151Z,11.5
2019-02-04T19:01:52.730Z,12.1
2019-02-04T19:06:58.013Z,9.7
2019-02-04T19:12:04.293Z,12.1
2019-02-04T19:17:10.705Z,7
2019-02-04T19:22:19.894Z,5.9
2019-02-04T19:27:26.894Z,6.5
2019-02-04T19:32:32.535Z,6.6
2019-02-04T19:37:38.617Z,5
2019-02-04T19:42:43.774Z,4.7
2019-02-04T19:47:49.035Z,6.5
2019-02-04T19:52:54.424Z,5.3
2019-02-04T19:57:59.696Z,6.3
2019-02-04T20:03:06.382Z,3.8
2019-02-04T20:08:11.465Z,6.8
2019-02-04T20:13:16.865Z,5.8
2019-02-04T20:18:22.630Z,3.5
2019-02-04T20:23:27.831Z,5.4
2019-02-04T20:28:33.383Z,3.7
2019-02-04T20:33:38.408Z,2.3
2019-02-04T20:38:46.449Z,3.4
2019-02-04T20:43:52.668Z,4.3
2019-02-04T20:48:58.559Z,3
2019-02-04T20:54:04.115Z,5.8
2019-02-04T20:59:09.230Z,5
2019-02-04T21:04:14.324Z,3.2
2019-02-04T21:09:19.614Z,3.4
2019-02-04T21:14:26.128Z,5.4
2019-02-04T21:19:31.855Z,4.2
2019-02-04T21:24:35.930Z,5.7
2019-02-04T21:29:41.921Z,7.8
2019-02-04T21:34:47.277Z,16.9
2019-02-04T21:39:48.410Z,8.5
2019-02-04T21:44:54.091Z,9.8
2019-02-04T21:50:00.596Z,8.8
2019-02-04T21:55:08.246Z,7.4
2019-02-04T22:00:16.246Z,6.2
2019-02-04T22:05:21.868Z,12.1
2019-02-04T22:10:27.804Z,6.5
2019-02-04T22:15:32.884Z,7.6
2019-02-04T22:20:38.753Z,6.4
2019-02-04T22:25:44.101Z,8.4
2019-02-04T22:30:49.492Z,7.9
2019-02-04T22:35:54.740Z,13
2019-02-04T22:40:58.977Z,7
2019-02-04T22:46:04.835Z,6
2019-02-04T22:51:10.600Z,7.9
2019-02-04T22:56:16.864Z,9
2019-02-04T23:01:22.237Z,7.7
2019-02-04T23:06:28.192Z,7.4
2019-02-04T23:11:34.737Z,7.7
2019-02-04T23:16:40.352Z,9
2019-02-04T23:21:45.722Z,6.5
2019-02-04T23:26:51.098Z,8.5
2019-02-04T23:31:56.380Z,8.4
2019-02-04T23:37:02.344Z,8.1
2019-02-04T23:42:07.986Z,9.4
2019-02-04T23:47:13.450Z,14.3
2019-02-04T23:52:19.184Z,6.4
2019-02-04T23:57:25.027Z,6.2
